Time;durP1;ratioP1;P1;durP2;ratioP2;P2;SDS_P1;SDS_P2;PMS_P1;PMS_P2;Temp;Humidity;BMP_temperature;BMP_pressure;BME280_temperature;BME280_humidity;BME280_pressure;Samples;Min_cycle;Max_cycle;Signal;HPM_P1;HPM_P2
2024/04/17 08:47:14;;;;;;;0.70;0.70;;;;;;;9.59;100.00;99936.59;7409589;19;327046;-60
2024/04/17 08:49:44;;;;;;;0.93;0.93;;;;;;;7.95;100.00;99937.63;7428002;19;20492;-60
2024/04/17 08:52:11;;;;;;;0.57;0.57;;;;;;;7.74;100.00;99927.34;7427193;19;20037;-60
2024/04/17 08:54:42;;;;;;;0.60;0.60;;;;;;;7.41;100.00;99936.09;7429145;19;20014;-60
2024/04/17 08:57:10;;;;;;;2.28;0.70;;;;;;;7.68;100.00;99934.69;7425621;19;20074;-60
2024/04/17 08:59:36;;;;;;;0.40;0.40;;;;;;;7.62;100.00;99935.28;7427229;19;20037;-60
2024/04/17 09:02:03;;;;;;;7.07;0.65;;;;;;;23.09;94.13;99910.72;7429335;19;20070;-60
2024/04/17 09:04:29;;;;;;;5.22;0.82;;;;;;;24.96;62.32;99908.69;7429703;19;20383;-60
2024/04/17 09:06:56;;;;;;;0.35;0.35;;;;;;;25.63;58.71;99900.44;7428243;19;20010;-60
2024/04/17 09:09:23;;;;;;;0.40;0.40;;;;;;;20.60;65.88;99919.53;7424870;19;20433;-60
2024/04/17 09:11:51;;;;;;;0.73;0.57;;;;;;;19.19;69.45;99915.88;7423569;19;20014;-61
2024/04/17 09:14:19;;;;;;;0.15;0.15;;;;;;;16.32;93.61;99924.34;7426733;19;20010;-60
2024/04/17 09:16:45;;;;;;;4.85;0.82;;;;;;;22.67;65.27;99909.38;7428483;19;20010;-60
2024/04/17 09:19:12;;;;;;;0.30;0.30;;;;;;;29.86;44.43;99889.41;7426374;19;20035;-60
2024/04/17 09:21:39;;;;;;;0.20;0.20;;;;;;;31.77;37.72;99890.13;7428287;19;20018;-60
2024/04/17 09:24:06;;;;;;;0.30;0.30;;;;;;;29.95;36.93;99883.59;7426386;19;20074;-60
2024/04/17 09:26:32;;;;;;;0.60;0.60;;;;;;;27.13;37.71;99883.31;7420560;19;20013;-60
2024/04/17 09:28:58;;;;;;;0.40;0.40;;;;;;;29.02;36.38;99881.06;7426824;19;20031;-60
2024/04/17 09:31:24;;;;;;;0.35;0.35;;;;;;;29.10;36.02;99870.94;7423528;19;20006;-60
2024/04/17 09:33:51;;;;;;;0.45;0.45;;;;;;;29.27;34.98;99870.03;7425071;19;20011;-60
2024/04/17 09:36:17;;;;;;;1.65;0.43;;;;;;;27.68;36.25;99877.81;7428282;19;20015;-60
2024/04/17 09:38:43;;;;;;;0.40;0.40;;;;;;;28.43;35.59;99867.25;7422854;19;20022;-60
2024/04/17 09:41:10;;;;;;;12.30;0.60;;;;;;;28.76;34.06;99861.91;7428565;19;20028;-60
2024/04/17 09:43:42;;;;;;;4.25;0.70;;;;;;;27.09;35.75;99875.19;7423622;19;20011;-60
2024/04/17 09:46:08;;;;;;;0.85;0.35;;;;;;;27.97;35.25;99860.75;7422640;19;20023;-61
2024/04/17 09:48:41;;;;;;;9.38;0.82;;;;;;;29.33;34.37;99864.75;7423663;19;20027;-60
2024/04/17 09:51:10;;;;;;;2.33;1.15;;;;;;;28.14;34.18;99861.47;7423212;19;20461;-60
2024/04/17 09:53:53;;;;;;;0.20;0.20;;;;;;;27.48;35.03;99864.75;7425025;19;20470;-60
2024/04/17 09:56:21;;;;;;;0.20;0.20;;;;;;;26.32;35.45;99859.41;7418483;19;20019;-60
2024/04/17 09:58:49;;;;;;;0.65;0.65;;;;;;;26.44;35.60;99863.28;7394375;19;20477;-60
2024/04/17 10:01:15;;;;;;;1.42;0.30;;;;;;;28.16;33.64;99858.75;7394803;19;20021;-60
2024/04/17 10:03:43;;;;;;;0.15;0.15;;;;;;;31.02;31.57;99856.47;7396041;19;20026;-60
2024/04/17 10:06:09;;;;;;;0.32;0.32;;;;;;;30.34;31.71;99852.56;7395731;19;20028;-60
2024/04/17 10:08:36;;;;;;;3.10;0.68;;;;;;;29.87;31.17;99850.69;7393064;19;20410;-60
2024/04/17 10:11:04;;;;;;;0.28;0.28;;;;;;;30.15;30.63;99840.44;7394975;19;20423;-57
2024/04/17 10:13:31;;;;;;;0.40;0.40;;;;;;;28.18;32.35;99844.59;7397146;19;20014;-59
2024/04/17 10:15:58;;;;;;;0.10;0.10;;;;;;;27.85;31.90;99846.28;7395575;19;20361;-59
2024/04/17 10:18:24;;;;;;;0.30;0.30;;;;;;;28.60;31.30;99841.38;7398534;19;20025;-57
2024/04/17 10:20:55;;;;;;;0.15;0.15;;;;;;;28.78;30.69;99836.25;7397118;19;20011;-58
2024/04/17 10:23:29;;;;;;;0.10;0.10;;;;;;;28.01;30.95;99836.09;7390751;19;20355;-58
2024/04/17 10:25:57;;;;;;;0.20;0.20;;;;;;;27.88;31.34;99833.63;7393358;19;20006;-58
2024/04/17 10:28:26;;;;;;;0.20;0.20;;;;;;;28.07;31.33;99833.69;7394590;19;20010;-58
2024/04/17 10:30:58;;;;;;;0.38;0.30;;;;;;;29.03;31.04;99837.44;7395460;19;20016;-58
2024/04/17 10:33:31;;;;;;;0.82;0.40;;;;;;;27.95;29.80;99838.47;7394255;19;20407;-58
2024/04/17 10:36:00;;;;;;;0.25;0.20;;;;;;;27.51;31.54;99832.84;7395587;19;20010;-58
2024/04/17 10:38:28;;;;;;;2.70;0.30;;;;;;;28.18;30.94;99849.53;7399575;19;20017;-58
2024/04/17 10:41:13;;;;;;;0.17;0.17;;;;;;;27.91;30.26;99835.28;7398103;19;20014;-58
2024/04/17 10:43:44;;;;;;;2.72;0.20;;;;;;;27.43;30.94;99842.91;7397351;19;20024;-58
2024/04/17 10:46:10;;;;;;;0.32;0.32;;;;;;;27.87;30.57;99826.41;7395870;19;20131;-58
2024/04/17 10:48:47;;;;;;;1.40;0.45;;;;;;;27.74;30.81;99835.38;7395410;19;20486;-58
2024/04/17 10:51:14;;;;;;;0.85;0.45;;;;;;;26.66;30.80;99833.72;7397176;19;20034;-58
2024/04/17 10:53:46;;;;;;;0.10;0.10;;;;;;;27.08;31.34;99838.56;7399280;19;20334;-58
2024/04/17 10:56:13;;;;;;;0.10;0.10;;;;;;;26.50;29.82;99820.19;7398255;19;20326;-57
2024/04/17 10:58:42;;;;;;;2.10;0.35;;;;;;;26.71;31.12;99824.13;7395602;19;20335;-57
2024/04/17 11:01:11;;;;;;;1.27;0.55;;;;;;;26.88;30.94;99823.38;7396505;19;20022;-57
2024/04/17 11:03:38;;;;;;;0.32;0.28;;;;;;;26.33;31.87;99830.25;7398379;19;20002;-57
2024/04/17 11:06:08;;;;;;;0.90;0.28;;;;;;;27.12;30.85;99821.75;7396536;19;20461;-57
2024/04/17 11:08:41;;;;;;;0.25;0.25;;;;;;;24.02;33.92;99818.84;7394528;19;20066;-57
2024/04/17 11:11:10;;;;;;;0.60;0.52;;;;;;;21.52;36.72;99816.13;7395591;19;20009;-57
2024/04/17 11:13:42;;;;;;;0.30;0.22;;;;;;;20.89;37.90;99820.16;7396523;19;20018;-58
2024/04/17 11:16:08;;;;;;;4.95;0.50;;;;;;;20.39;38.30;99824.03;7396683;19;20465;-58
2024/04/17 11:19:11;;;;;;;0.77;0.32;;;;;;;19.60;40.02;99816.69;7395196;19;20007;-57
2024/04/17 11:21:37;;;;;;;1.00;0.22;;;;;;;20.39;40.07;99823.25;7397416;19;20010;-57
2024/04/17 11:24:04;;;;;;;1.50;0.20;;;;;;;20.06;39.21;99821.78;7396489;19;20475;-59
2024/04/17 11:26:31;;;;;;;0.13;0.13;;;;;;;19.39;41.20;99827.03;7396042;19;20023;-59
2024/04/17 11:28:57;;;;;;;0.17;0.10;;;;;;;19.12;40.89;99812.03;7395451;19;20018;-59
2024/04/17 11:31:24;;;;;;;3.20;0.57;;;;;;;26.38;33.93;99805.63;7397776;19;20022;-57
2024/04/17 11:33:50;;;;;;;0.10;0.10;;;;;;;28.03;31.23;99804.75;7396677;19;20010;-59
2024/04/17 11:36:17;;;;;;;0.75;0.45;;;;;;;27.68;31.03;99807.03;7396089;19;20018;-57
2024/04/17 11:38:44;;;;;;;2.72;0.57;;;;;;;27.17;31.77;99795.00;7398128;19;20011;-57
2024/04/17 11:41:13;;;;;;;2.50;1.00;;;;;;;27.27;31.83;99798.66;7394504;19;20367;-56
2024/04/17 11:43:40;;;;;;;0.20;0.20;;;;;;;28.57;30.75;99810.28;7394698;19;20002;-56
2024/04/17 11:46:14;;;;;;;0.25;0.17;;;;;;;28.85;30.05;99812.38;7392000;19;20014;-56
2024/04/17 11:48:40;;;;;;;0.10;0.10;;;;;;;28.70;30.26;99818.44;7395864;19;20014;-57
2024/04/17 11:51:07;;;;;;;0.10;0.10;;;;;;;30.59;27.35;99814.75;7395744;19;20014;-57
2024/04/17 11:53:34;;;;;;;2.90;0.30;;;;;;;31.99;26.94;99810.88;7394728;19;20007;-57
2024/04/17 11:56:00;;;;;;;0.30;0.30;;;;;;;32.04;25.93;99806.88;7390137;19;20078;-80
2024/04/17 11:58:26;;;;;;;0.10;0.10;;;;;;;31.93;25.75;99813.34;7390337;19;20010;-84
2024/04/17 12:00:52;;;;;;;1.90;0.50;;;;;;;31.81;25.61;99807.63;7394869;19;20090;-79
2024/04/17 12:03:20;;;;;;;0.10;0.10;;;;;;;31.58;25.52;99813.34;7394259;19;20046;-80
2024/04/17 12:05:48;;;;;;;0.30;0.30;;;;;;;31.32;26.07;99806.66;7389526;19;20018;-82
2024/04/17 12:08:14;;;;;;;1.02;0.73;;;;;;;30.58;25.92;99810.38;7389029;19;20363;-77
2024/04/17 12:10:40;;;;;;;0.15;0.13;;;;;;;30.90;25.76;99801.03;7392735;19;20333;-82
2024/04/17 12:13:07;;;;;;;0.15;0.15;;;;;;;30.97;25.81;99805.78;7393756;19;20027;-82
2024/04/17 12:15:33;;;;;;;0.65;0.30;;;;;;;32.57;24.67;99799.28;7389569;19;20591;-81
2024/04/17 12:17:59;;;;;;;0.20;0.20;;;;;;;31.53;25.32;99807.97;7388575;19;20022;-83
2024/04/17 12:20:25;;;;;;;4.80;0.52;;;;;;;30.89;26.08;99822.53;7390803;19;20014;-80
2024/04/17 12:22:52;;;;;;;0.20;0.20;;;;;;;31.23;25.59;99801.75;7394397;19;20022;-81
2024/04/17 12:28:02;;;;;;;0.20;0.20;;;;;;;30.59;26.53;99809.00;7391579;19;20098;-78
2024/04/17 12:30:28;;;;;;;0.17;0.17;;;;;;;31.18;25.58;99794.25;7392940;19;20006;-79
2024/04/17 12:32:55;;;;;;;0.60;0.47;;;;;;;30.57;26.75;99803.09;7391119;19;20022;-83
2024/04/17 12:35:21;;;;;;;7.03;0.52;;;;;;;31.37;26.88;99799.03;7390608;19;20014;-82
2024/04/17 12:37:47;;;;;;;0.40;0.10;;;;;;;31.51;26.09;99790.56;7393178;19;20006;-86
2024/04/17 12:40:14;;;;;;;1.40;0.50;;;;;;;30.52;26.22;99792.69;7395626;19;20015;-80
2024/04/17 12:42:40;;;;;;;0.20;0.20;;;;;;;30.15;26.64;99803.09;7398411;19;20015;-79
2024/04/17 12:45:06;;;;;;;0.20;0.10;;;;;;;29.59;26.54;99803.50;7402928;19;20766;-80
2024/04/17 12:47:32;;;;;;;0.75;0.32;;;;;;;30.21;26.13;99817.88;7395827;19;20036;-81
2024/04/17 12:49:58;;;;;;;0.25;0.25;;;;;;;30.05;25.49;99802.38;7391473;19;20015;-80
2024/04/17 12:52:24;;;;;;;1.00;0.40;;;;;;;30.78;24.30;99794.44;7389412;19;20019;-80
2024/04/17 12:54:53;;;;;;;0.10;0.10;;;;;;;31.69;24.54;99809.72;7389538;19;20031;-79
2024/04/17 12:57:20;;;;;;;0.20;0.13;;;;;;;31.34;25.36;99801.03;7390659;19;20535;-80
2024/04/17 12:59:46;;;;;;;0.10;0.10;;;;;;;29.37;26.19;99807.63;7390184;19;20051;-79
2024/04/17 13:02:12;;;;;;;1.05;0.52;;;;;;;29.18;26.20;99816.28;7386650;19;20026;-79
2024/04/17 13:04:38;;;;;;;0.47;0.47;;;;;;;29.16;26.83;99801.81;7388590;19;20038;-78
2024/04/17 13:07:04;;;;;;;0.10;0.10;;;;;;;28.20;26.65;99798.91;7385594;19;20014;-79
2024/04/17 13:09:31;;;;;;;0.85;0.20;;;;;;;28.25;27.18;99794.25;7387931;19;20017;-79
2024/04/17 13:11:57;;;;;;;1.95;0.43;;;;;;;29.10;26.42;99804.22;7387470;19;20030;-79
2024/04/17 13:14:23;;;;;;;6.65;0.20;;;;;;;29.43;25.89;99808.09;7388394;19;20029;-79
2024/04/17 13:16:49;;;;;;;2.47;0.52;;;;;;;29.50;26.73;99801.41;7385550;19;20349;-79
2024/04/17 13:19:15;;;;;;;0.10;0.10;;;;;;;29.74;25.54;99794.53;7389108;19;20348;-78
2024/04/17 13:21:41;;;;;;;0.30;0.20;;;;;;;29.81;26.15;99802.22;7386325;19;20058;-81
2024/04/17 13:24:07;;;;;;;2.35;0.20;;;;;;;29.75;25.98;99810.41;7388825;19;20149;-80
2024/04/17 13:29:47;;;;;;;0.10;0.10;;;;;;;28.21;27.05;99809.03;7418130;19;20336;-76
2024/04/17 13:32:13;;;;;;;1.05;0.65;;;;;;;27.59;27.39;99801.28;7420162;19;20018;-76
2024/04/17 13:34:39;;;;;;;3.20;0.32;;;;;;;27.60;27.96;99791.31;7419123;19;20041;-76
2024/04/17 13:37:05;;;;;;;0.55;0.20;;;;;;;28.09;28.62;99793.75;7422308;19;20006;-76
2024/04/17 13:39:32;;;;;;;13.05;0.85;;;;;;;28.45;27.59;99787.19;7422941;19;20015;-76
2024/04/17 13:41:59;;;;;;;0.20;0.20;;;;;;;27.83;28.38;99783.13;7420458;19;20015;-76
2024/04/17 13:44:25;;;;;;;4.18;0.40;;;;;;;28.09;27.63;99787.28;7423321;19;20022;-76
2024/04/17 13:46:51;;;;;;;0.10;0.10;;;;;;;28.32;27.02;99774.06;7425596;19;20041;-76
2024/04/17 13:49:17;;;;;;;5.47;0.43;;;;;;;28.95;26.70;99782.38;7419468;19;20014;-76
2024/04/17 13:51:43;;;;;;;5.57;0.32;;;;;;;29.47;26.85;99785.41;7419829;19;20043;-76
2024/04/17 13:54:14;;;;;;;0.10;0.10;;;;;;;29.61;26.85;99789.28;7424129;19;20619;-76
2024/04/17 13:56:40;;;;;;;0.57;0.52;;;;;;;29.76;26.31;99783.19;7419142;19;20018;-76
2024/04/17 13:59:06;;;;;;;0.38;0.22;;;;;;;29.47;25.50;99778.91;7420508;19;20023;-76
2024/04/17 14:01:32;;;;;;;0.15;0.10;;;;;;;28.36;26.65;99774.38;7422160;19;20468;-76
2024/04/17 14:03:58;;;;;;;0.60;0.20;;;;;;;27.94;27.02;99768.22;7425095;19;20352;-76
2024/04/17 14:06:25;;;;;;;4.35;0.28;;;;;;;27.81;27.01;99782.22;7421559;19;20539;-76
2024/04/17 14:08:51;;;;;;;0.50;0.13;;;;;;;27.91;27.18;99768.69;7420729;19;20355;-76
2024/04/17 14:11:17;;;;;;;0.10;0.10;;;;;;;27.92;27.26;99773.81;7420439;19;20094;-76
2024/04/17 14:13:43;;;;;;;4.63;0.93;;;;;;;28.47;27.28;99765.16;7422690;19;20035;-76
2024/04/17 14:16:10;;;;;;;0.32;0.20;;;;;;;28.89;26.45;99755.34;7421385;19;20051;-76
2024/04/17 14:18:36;;;;;;;0.13;0.13;;;;;;;28.76;27.26;99755.84;7418491;19;20014;-76
2024/04/17 14:21:02;;;;;;;0.20;0.20;;;;;;;29.22;26.40;99771.44;7426737;19;20042;-76
2024/04/17 14:23:28;;;;;;;1.30;0.40;;;;;;;28.88;26.31;99756.72;7424961;19;20018;-76
2024/04/17 14:25:59;;;;;;;0.57;0.50;;;;;;;29.60;26.15;99747.59;7422298;19;20503;-76
2024/04/17 14:28:26;;;;;;;3.50;0.30;;;;;;;28.31;26.75;99743.91;7421024;19;20010;-76
2024/04/17 14:31:04;;;;;;;0.90;0.50;;;;;;;27.87;27.25;99740.50;7420490;19;20021;-76
2024/04/17 14:33:32;;;;;;;0.35;0.35;;;;;;;28.36;26.72;99739.22;7420283;19;20014;-76
2024/04/17 14:36:03;;;;;;;0.63;0.63;;;;;;;28.07;27.02;99732.75;7419774;19;20022;-76
2024/04/17 14:38:29;;;;;;;1.40;0.25;;;;;;;28.88;26.24;99739.50;7419371;19;20026;-76
2024/04/17 14:41:00;;;;;;;0.17;0.17;;;;;;;27.91;26.63;99740.06;7396706;19;20015;-76
2024/04/17 14:43:26;;;;;;;;;;;;;;;27.22;27.56;99739.66;7394088;19;20050;-76
2024/04/17 14:46:03;;;;;;;0.70;0.70;;;;;;;28.48;25.99;99734.38;7392686;19;19922;-76
2024/04/17 14:48:32;;;;;;;9.32;0.47;;;;;;;29.57;25.82;99737.31;7396318;19;20361;-76
2024/04/17 14:51:06;;;;;;;0.20;0.20;;;;;;;30.73;25.79;99744.53;7389220;19;20029;-75
2024/04/17 14:53:34;;;;;;;0.30;0.30;;;;;;;31.84;24.58;99736.44;7390387;19;20382;-76
2024/04/17 14:56:03;;;;;;;1.35;0.40;;;;;;;33.03;23.94;99717.53;7391319;19;20011;-78
2024/04/17 14:58:30;;;;;;;0.30;0.30;;;;;;;32.72;23.77;99718.69;7386674;19;20010;-78
2024/04/17 15:00:57;;;;;;;0.30;0.30;;;;;;;32.56;23.94;99714.13;7393348;19;20015;-78
2024/04/17 15:03:24;;;;;;;0.80;0.47;;;;;;;33.55;23.12;99726.19;7392811;19;20015;-78
2024/04/17 15:05:56;;;;;;;0.25;0.25;;;;;;;32.03;23.84;99719.66;7394931;19;20018;-78
2024/04/17 15:08:22;;;;;;;0.52;0.22;;;;;;;31.72;24.69;99718.44;7389762;19;20019;-79
2024/04/17 15:11:04;;;;;;;18.17;1.73;;;;;;;31.51;24.41;99721.47;7387660;19;20047;-77
2024/04/17 15:13:34;;;;;;;0.35;0.17;;;;;;;31.51;24.69;99721.47;7390927;19;20043;-77
2024/04/17 15:16:01;;;;;;;0.82;0.55;;;;;;;31.66;24.36;99718.06;7390548;19;20027;-78
2024/04/17 15:18:27;;;;;;;0.68;0.32;;;;;;;31.82;23.79;99704.66;7393277;19;20022;-77
2024/04/17 15:21:04;;;;;;;0.40;0.10;;;;;;;31.72;23.79;99724.97;7391568;19;20019;-77
2024/04/17 15:23:30;;;;;;;6.05;0.28;;;;;;;30.68;24.91;99731.28;7391064;19;20021;-77
2024/04/17 15:25:57;;;;;;;0.10;0.10;;;;;;;30.28;25.34;99727.81;7391558;19;20018;-79
2024/04/17 15:28:24;;;;;;;0.95;0.55;;;;;;;29.70;25.83;99738.91;7390936;19;20030;-79
2024/04/17 15:31:06;;;;;;;4.35;0.75;;;;;;;29.43;25.92;99739.22;7389912;19;20018;-79
2024/04/17 15:33:35;;;;;;;0.10;0.10;;;;;;;28.02;27.04;99754.59;7391508;19;20044;-78
2024/04/17 15:36:03;;;;;;;0.10;0.10;;;;;;;28.01;27.46;99767.38;7388917;19;20508;-78
2024/04/17 15:38:30;;;;;;;0.20;0.20;;;;;;;27.65;28.17;99759.59;7387492;19;20017;-79
2024/04/17 15:40:58;;;;;;;3.63;0.68;;;;;;;28.77;27.87;99763.06;7394877;19;20023;-79
2024/04/17 15:43:25;;;;;;;0.50;0.50;;;;;;;28.68;27.85;99758.84;7390323;19;20484;-79
2024/04/17 15:45:52;;;;;;;0.47;0.47;;;;;;;27.86;28.54;99756.16;7391432;19;20018;-83
2024/04/17 15:48:25;;;;;;;0.90;0.73;;;;;;;28.28;28.28;99762.31;7392567;19;20015;-80
2024/04/17 15:50:56;;;;;;;0.65;0.40;;;;;;;28.12;28.61;99758.19;7385048;19;20036;-79
2024/04/17 15:53:26;;;;;;;4.40;0.95;;;;;;;29.39;27.75;99756.13;7391296;19;20023;-79
2024/04/17 15:55:53;;;;;;;0.20;0.20;;;;;;;28.46;28.83;99754.28;7388337;19;20043;-80
2024/04/17 15:58:23;;;;;;;0.82;0.50;;;;;;;27.49;30.25;99763.25;7389760;19;20021;-80
2024/04/17 16:01:03;;;;;;;0.40;0.40;;;;;;;27.21;30.01;99755.28;7389569;19;20258;-80
2024/04/17 16:03:33;;;;;;;0.43;0.43;;;;;;;27.38;29.98;99752.38;7394264;19;20058;-80
2024/04/17 16:06:02;;;;;;;3.65;1.05;;;;;;;27.80;29.86;99775.75;7395895;19;20704;-80
2024/04/17 16:08:28;;;;;;;1.38;0.80;;;;;;;27.23;30.28;99792.63;7387277;19;20021;-80
2024/04/17 16:10:55;;;;;;;0.35;0.35;;;;;;;26.73;30.66;99790.03;7386670;19;20015;-77
2024/04/17 16:13:21;;;;;;;0.40;0.40;;;;;;;26.93;30.30;99806.00;7389728;19;20017;-80
2024/04/17 16:15:48;;;;;;;0.80;0.80;;;;;;;25.50;31.55;99799.56;7388583;19;20014;-81
2024/04/17 16:18:15;;;;;;;5.47;1.42;;;;;;;25.84;31.92;99789.56;7393505;19;20108;-88
2024/04/17 16:20:41;;;;;;;0.70;0.70;;;;;;;25.41;31.93;99783.03;7391711;19;20022;-79
2024/04/17 16:23:07;;;;;;;4.20;0.90;;;;;;;26.17;32.05;99779.59;7393281;19;20110;-83
2024/04/17 16:25:34;;;;;;;0.80;0.80;;;;;;;26.36;32.08;99785.47;7395109;19;20703;-84
2024/04/17 16:28:00;;;;;;;1.08;1.02;;;;;;;23.82;34.28;99785.66;7389663;19;20053;-82
2024/04/17 16:30:26;;;;;;;4.40;0.85;;;;;;;23.47;35.77;99780.16;7390139;19;20093;-86
2024/04/17 16:32:53;;;;;;;0.60;0.43;;;;;;;23.77;35.65;99768.78;7387199;19;20010;-85
2024/04/17 16:35:19;;;;;;;0.60;0.60;;;;;;;23.49;36.72;99775.41;7388206;19;20024;-77
2024/04/17 16:37:45;;;;;;;1.42;0.95;;;;;;;23.29;37.16;99764.94;7393333;19;20018;-82
2024/04/17 16:40:11;;;;;;;0.50;0.45;;;;;;;23.11;37.62;99772.47;7387409;19;20457;-81
2024/04/17 16:42:37;;;;;;;1.58;0.98;;;;;;;23.17;37.92;99775.16;7390081;19;20086;-81
2024/04/17 16:45:03;;;;;;;1.05;1.05;;;;;;;23.72;37.59;99776.19;7394179;19;20018;-80
2024/04/17 16:47:29;;;;;;;0.52;0.52;;;;;;;24.07;37.48;99778.09;7391345;19;20026;-80
2024/04/17 16:49:56;;;;;;;0.80;0.50;;;;;;;23.98;37.88;99772.94;7392205;19;20058;-80
2024/04/17 16:52:22;;;;;;;1.75;0.85;;;;;;;24.34;37.86;99777.66;7386883;19;20520;-80
2024/04/17 16:54:48;;;;;;;1.55;0.75;;;;;;;24.70;38.09;99773.16;7390542;19;20011;-80
2024/04/17 16:57:15;;;;;;;0.65;0.50;;;;;;;24.84;38.36;99788.69;7385110;19;20441;-80
2024/04/17 16:59:41;;;;;;;4.43;0.68;;;;;;;25.73;37.75;99807.19;7392102;19;20512;-80
2024/04/17 17:02:07;;;;;;;1.75;0.90;;;;;;;26.54;36.43;99797.66;7389383;19;20035;-86
2024/04/17 17:04:33;;;;;;;2.95;0.95;;;;;;;26.49;36.20;99795.81;7391640;19;20327;-90
2024/04/17 17:06:59;;;;;;;0.40;0.40;;;;;;;26.45;35.68;99795.47;7391000;19;20459;-81
2024/04/17 17:09:25;;;;;;;0.40;0.40;;;;;;;25.95;35.67;99800.53;7386431;19;20027;-81
2024/04/17 17:11:51;;;;;;;0.68;0.50;;;;;;;26.11;35.46;99813.34;7390330;19;20022;-81
2024/04/17 17:14:17;;;;;;;0.57;0.57;;;;;;;25.55;35.89;99815.66;7389819;19;20035;-82
2024/04/17 17:16:44;;;;;;;0.50;0.50;;;;;;;25.72;34.77;99817.06;7389774;19;20531;-81
2024/04/17 17:19:10;;;;;;;0.45;0.45;;;;;;;24.34;36.04;99821.13;7386949;19;20041;-81
2024/04/17 17:21:37;;;;;;;0.32;0.32;;;;;;;24.09;36.13;99818.09;7386836;19;20050;-81
2024/04/17 17:24:04;;;;;;;0.50;0.50;;;;;;;24.13;35.86;99828.34;7389960;19;20333;-81
2024/04/17 17:26:30;;;;;;;0.30;0.30;;;;;;;24.08;35.88;99819.41;7387619;19;20030;-81
2024/04/17 17:29:00;;;;;;;0.55;0.55;;;;;;;24.80;34.81;99811.13;7386682;19;20022;-81
2024/04/17 17:31:27;;;;;;;0.80;0.73;;;;;;;24.31;35.09;99833.63;7388626;19;20565;-80
2024/04/17 17:33:53;;;;;;;5.18;0.80;;;;;;;24.27;35.09;99821.13;7387568;19;20011;-81
2024/04/17 17:36:19;;;;;;;4.72;1.02;;;;;;;24.52;34.40;99830.53;7385328;19;20338;-81
2024/04/17 17:38:45;;;;;;;0.45;0.45;;;;;;;22.60;36.39;99839.88;7385911;19;20362;-80
2024/04/17 17:41:18;;;;;;;0.60;0.60;;;;;;;25.25;34.29;99832.94;7388968;19;20015;-80
2024/04/17 17:43:46;;;;;;;0.75;0.75;;;;;;;24.08;34.89;99835.75;7388262;19;20022;-80
2024/04/17 17:46:15;;;;;;;0.50;0.50;;;;;;;22.34;37.03;99838.00;7388532;19;20029;-80
2024/04/17 17:48:43;;;;;;;0.60;0.60;;;;;;;21.96;37.49;99836.94;7389912;19;20015;-80
2024/04/17 17:51:10;;;;;;;1.35;0.75;;;;;;;21.80;37.59;99846.63;7389008;19;20489;-80
2024/04/17 17:53:39;;;;;;;2.20;0.80;;;;;;;24.92;34.40;99833.50;7387828;19;20022;-80
2024/04/17 17:56:07;;;;;;;0.88;0.88;;;;;;;23.30;35.31;99841.09;7389274;19;20018;-80
2024/04/17 17:58:35;;;;;;;1.40;0.95;;;;;;;23.84;34.86;99837.06;7389613;19;20018;-81
2024/04/17 18:01:02;;;;;;;1.42;1.33;;;;;;;23.14;35.67;99844.47;7389562;19;20042;-80
2024/04/17 18:03:29;;;;;;;0.47;0.47;;;;;;;24.33;34.79;99850.13;7388537;19;20479;-80
2024/04/17 18:06:02;;;;;;;0.50;0.50;;;;;;;25.26;33.35;99845.88;7388435;19;20506;-80
2024/04/17 18:08:29;;;;;;;0.73;0.73;;;;;;;24.41;34.72;99840.25;7384729;19;20347;-81
2024/04/17 18:10:56;;;;;;;0.50;0.50;;;;;;;24.90;33.87;99842.63;7388525;19;20014;-80
2024/04/17 18:13:23;;;;;;;0.55;0.55;;;;;;;25.50;33.21;99853.75;7386019;19;20429;-80
2024/04/17 18:15:57;;;;;;;0.70;0.70;;;;;;;25.19;33.20;99866.59;7388097;19;20010;-81
2024/04/17 18:18:24;;;;;;;0.80;0.80;;;;;;;24.81;33.65;99869.63;7393667;19;20469;-81
2024/04/17 18:20:51;;;;;;;0.73;0.73;;;;;;;24.08;34.70;99873.50;7397198;19;20096;-82
2024/04/17 18:23:17;;;;;;;0.88;0.88;;;;;;;24.11;34.19;99882.97;7395120;19;20014;-82
2024/04/17 18:25:43;;;;;;;3.85;1.60;;;;;;;24.07;34.25;99877.69;7396987;19;20017;-81
2024/04/17 18:28:10;;;;;;;0.95;0.95;;;;;;;21.62;36.89;99892.94;7394750;19;20571;-81
2024/04/17 18:30:36;;;;;;;0.90;0.90;;;;;;;20.27;38.95;99893.41;7393668;19;20042;-80
2024/04/17 18:33:02;;;;;;;0.70;0.70;;;;;;;21.45;37.61;99896.16;7392846;19;20983;-80
2024/04/17 18:35:28;;;;;;;0.50;0.50;;;;;;;21.58;37.34;99898.94;7393613;19;20473;-81
2024/04/17 18:37:55;;;;;;;0.82;0.82;;;;;;;22.05;36.94;99896.03;7393493;19;20090;-81
2024/04/17 18:40:21;;;;;;;0.50;0.50;;;;;;;22.24;36.72;99899.38;7395687;19;20014;-81
2024/04/17 18:42:47;;;;;;;0.60;0.60;;;;;;;22.59;36.45;99901.56;7395216;19;20009;-80
2024/04/17 18:45:13;;;;;;;1.65;1.40;;;;;;;23.27;35.55;99895.47;7397297;19;20018;-80
2024/04/17 18:47:40;;;;;;;1.77;0.85;;;;;;;23.37;35.10;99907.84;7393787;19;20116;-80
2024/04/17 18:50:06;;;;;;;0.98;0.98;;;;;;;22.56;36.21;99911.19;7395080;19;20512;-80
2024/04/17 18:52:32;;;;;;;0.88;0.88;;;;;;;23.36;35.58;99900.66;7389256;19;20022;-80
2024/04/17 18:58:08;;;;;;;1.00;0.95;;;;;;;23.41;35.31;99907.50;7394729;19;20007;-61
2024/04/17 19:00:38;;;;;;;0.93;0.93;;;;;;;23.94;34.53;99914.06;7390371;19;20357;-61
2024/04/17 19:03:04;;;;;;;5.35;1.48;;;;;;;23.54;34.77;99913.78;7392222;19;20018;-61
2024/04/17 19:05:30;;;;;;;1.85;1.75;;;;;;;24.03;34.61;99917.09;7393042;19;20014;-61
2024/04/17 19:07:56;;;;;;;0.85;0.85;;;;;;;23.93;34.10;99930.34;7390712;19;20020;-61
2024/04/17 19:10:23;;;;;;;1.17;1.17;;;;;;;24.06;34.45;99924.53;7393264;19;20023;-61
2024/04/17 19:12:50;;;;;;;1.23;1.23;;;;;;;24.52;33.97;99919.59;7397862;19;20370;-61
2024/04/17 19:15:17;;;;;;;0.95;0.95;;;;;;;23.51;34.53;99936.91;7396982;19;20115;-61
2024/04/17 19:17:43;;;;;;;1.05;1.05;;;;;;;21.77;36.53;99944.13;7396836;19;20070;-61
2024/04/17 19:20:09;;;;;;;1.38;1.27;;;;;;;19.98;38.29;99942.47;7393119;19;20463;-60
2024/04/17 19:22:36;;;;;;;1.27;1.02;;;;;;;19.50;39.32;99957.59;7393805;19;20381;-61
2024/04/17 19:25:02;;;;;;;0.73;0.73;;;;;;;19.46;39.35;99954.31;7396857;19;20015;-61
2024/04/17 19:27:28;;;;;;;0.47;0.47;;;;;;;21.13;37.69;99955.06;7394855;19;20015;-61
2024/04/17 19:29:55;;;;;;;0.90;0.90;;;;;;;21.41;36.86;99969.41;7393607;19;20015;-60
2024/04/17 19:32:21;;;;;;;0.70;0.70;;;;;;;22.31;36.00;99975.31;7393725;19;20134;-61
2024/04/17 19:34:48;;;;;;;1.13;1.13;;;;;;;22.34;35.59;99991.22;7395516;19;20011;-60
2024/04/17 19:37:14;;;;;;;0.98;0.98;;;;;;;20.69;37.54;99996.31;7393832;19;20045;-61
2024/04/17 19:39:42;;;;;;;1.15;1.05;;;;;;;22.62;35.63;99996.22;7393770;19;20356;-61
2024/04/17 19:42:08;;;;;;;0.73;0.73;;;;;;;23.27;34.48;100001.41;7392705;19;20018;-60
2024/04/17 19:44:34;;;;;;;0.80;0.80;;;;;;;21.98;35.57;100009.41;7394895;19;20505;-60
2024/04/17 19:47:00;;;;;;;2.80;1.67;;;;;;;22.41;35.21;100013.25;7395025;19;20030;-61
2024/04/17 19:49:26;;;;;;;0.90;0.90;;;;;;;21.77;36.01;100017.81;7390719;19;20010;-61
2024/04/17 19:51:52;;;;;;;2.33;1.33;;;;;;;22.48;35.45;100018.22;7393284;19;20423;-61
2024/04/17 19:54:19;;;;;;;10.05;2.00;;;;;;;22.23;35.63;100030.47;7394151;19;20098;-61
2024/04/17 19:56:45;;;;;;;2.28;2.17;;;;;;;13.05;50.62;100053.25;7391484;19;20006;-61
2024/04/17 19:59:11;;;;;;;2.58;2.13;;;;;;;17.30;43.52;100054.78;7393266;19;20025;-61
2024/04/17 20:01:37;;;;;;;1.45;1.40;;;;;;;17.89;42.18;100047.88;7393561;19;20018;-60
2024/04/17 20:04:03;;;;;;;1.23;1.23;;;;;;;18.00;42.62;100051.41;7394110;19;20014;-61
2024/04/17 20:06:29;;;;;;;1.10;1.10;;;;;;;18.97;40.69;100057.31;7391872;19;20443;-61
2024/04/17 20:08:55;;;;;;;0.70;0.70;;;;;;;18.86;41.29;100063.06;7389008;19;20018;-61
2024/04/17 20:11:22;;;;;;;1.58;1.50;;;;;;;18.94;40.82;100069.63;7393500;19;20365;-58
2024/04/17 20:13:49;;;;;;;0.85;0.85;;;;;;;18.48;41.60;100075.44;7395790;19;20046;-58
2024/04/17 20:16:20;;;;;;;1.63;1.55;;;;;;;18.16;42.06;100080.78;7394611;19;20014;-58
2024/04/17 20:18:46;;;;;;;6.10;1.20;;;;;;;18.06;42.10;100077.47;7392368;19;20010;-57
2024/04/17 20:21:13;;;;;;;2.05;1.80;;;;;;;18.05;41.97;100078.78;7391787;19;20013;-59
2024/04/17 20:23:42;;;;;;;2.28;1.35;;;;;;;19.34;40.66;100082.84;7392508;19;20017;-59
2024/04/17 20:26:12;;;;;;;3.00;1.10;;;;;;;19.54;40.28;100082.34;7391921;19;20013;-59
2024/04/17 20:28:43;;;;;;;1.50;1.50;;;;;;;19.01;40.97;100097.28;7390098;19;20019;-59
2024/04/17 20:31:11;;;;;;;1.55;1.45;;;;;;;19.67;39.85;100096.56;7394051;19;20019;-59